Time;durP1;ratioP1;P1;durP2;ratioP2;P2;SDS_P1;SDS_P2;PMS_P1;PMS_P2;Temp;Humidity;BMP_temperature;BMP_pressure;BME280_temperature;BME280_humidity;BME280_pressure;Samples;Min_cycle;Max_cycle;Signal;HPM_P1;HPM_P2
2022/11/08 00:03:00;;;;;;;;;;;22.00;45.00;;;;;;474601;251;1308;-46
2022/11/08 00:14:19;;;;;;;;;;;22.00;45.00;;;;;;474579;251;1247;-48
2022/11/08 00:16:20;;;;;;;;;;;22.00;45.00;;;;;;474975;251;1199;-47
2022/11/08 00:18:22;;;;;;;;;;;22.00;45.00;;;;;;474583;251;1379;-48
2022/11/08 00:20:23;;;;;;;;;;;22.00;44.90;;;;;;474819;251;1241;-47
2022/11/08 00:22:24;;;;;;;;;;;22.00;44.90;;;;;;475028;251;1269;-47
2022/11/08 00:24:26;;;;;;;;;;;22.00;45.00;;;;;;474582;251;1220;-47
2022/11/08 00:26:27;;;;;;;;;;;22.00;44.90;;;;;;474658;251;1693;-47
2022/11/08 00:28:28;;;;;;;;;;;22.00;45.00;;;;;;474625;251;1391;-46
2022/11/08 00:30:30;;;;;;;;;;;22.00;45.00;;;;;;474822;251;2173;-47
2022/11/08 00:32:31;;;;;;;;;;;22.00;45.00;;;;;;474609;251;1544;-46
2022/11/08 00:34:32;;;;;;;;;;;22.00;45.00;;;;;;474906;251;1412;-47
2022/11/08 00:36:34;;;;;;;;;;;22.00;45.00;;;;;;474716;251;1347;-46
2022/11/08 00:38:35;;;;;;;;;;;22.00;45.00;;;;;;474606;251;1569;-47
2022/11/08 00:40:36;;;;;;;;;;;22.00;44.90;;;;;;474987;251;1329;-48
2022/11/08 00:42:38;;;;;;;;;;;22.00;45.00;;;;;;474899;251;1240;-48
2022/11/08 00:44:39;;;;;;;;;;;22.00;45.00;;;;;;474594;251;1331;-47
2022/11/08 00:46:40;;;;;;;;;;;22.00;45.00;;;;;;474733;251;1266;-47
2022/11/08 00:48:42;;;;;;;;;;;22.00;45.00;;;;;;474890;251;1226;-46
2022/11/08 00:50:43;;;;;;;;;;;22.00;45.00;;;;;;474938;251;2177;-46
2022/11/08 00:52:44;;;;;;;;;;;22.00;44.90;;;;;;474791;251;1405;-47
2022/11/08 00:54:46;;;;;;;;;;;22.00;44.90;;;;;;475058;251;1380;-47
2022/11/08 00:56:47;;;;;;;;;;;22.00;44.90;;;;;;474970;251;1451;-47
2022/11/08 00:58:48;;;;;;;;;;;22.00;45.00;;;;;;474803;251;1216;-47
2022/11/08 01:00:50;;;;;;;;;;;22.00;45.00;;;;;;474716;251;1308;-47
2022/11/08 01:03:17;;;;;;;;;;;22.00;45.00;;;;;;474653;251;1294;-47
2022/11/08 01:04:53;;;;;;;;;;;22.00;45.00;;;;;;473489;251;1574;-46
2022/11/08 01:06:54;;;;;;;;;;;22.00;44.90;;;;;;474577;251;1252;-47
2022/11/08 01:08:55;;;;;;;;;;;22.00;45.00;;;;;;474807;251;1232;-47
2022/11/08 01:10:57;;;;;;;;;;;22.00;45.00;;;;;;474639;251;2193;-48
2022/11/08 01:12:58;;;;;;;;;;;22.00;45.00;;;;;;474866;251;1215;-46
2022/11/08 01:14:59;;;;;;;;;;;22.00;44.90;;;;;;474871;251;1173;-47
2022/11/08 01:17:01;;;;;;;;;;;22.00;45.00;;;;;;474648;251;1308;-47
2022/11/08 01:19:02;;;;;;;;;;;22.00;44.90;;;;;;474696;251;1326;-46
2022/11/08 01:21:03;;;;;;;;;;;22.00;45.00;;;;;;474645;251;1212;-47
2022/11/08 01:23:05;;;;;;;;;;;22.00;44.90;;;;;;475066;251;1189;-47
2022/11/08 01:25:06;;;;;;;;;;;22.00;44.90;;;;;;474718;251;1219;-47
2022/11/08 01:27:07;;;;;;;;;;;22.00;45.00;;;;;;474971;251;1294;-47
2022/11/08 01:29:08;;;;;;;;;;;22.00;45.00;;;;;;474994;251;1197;-47
2022/11/08 01:31:10;;;;;;;;;;;22.00;45.00;;;;;;475085;251;2118;-46
2022/11/08 01:33:11;;;;;;;;;;;22.00;44.90;;;;;;475082;251;1245;-46
2022/11/08 01:35:12;;;;;;;;;;;22.00;45.00;;;;;;474710;251;1205;-47
2022/11/08 01:37:14;;;;;;;;;;;22.00;44.90;;;;;;474676;251;1280;-47
2022/11/08 01:39:15;;;;;;;;;;;22.00;44.90;;;;;;474699;251;1194;-47
2022/11/08 01:41:17;;;;;;;;;;;22.00;44.90;;;;;;474815;251;1188;-47
2022/11/08 01:43:18;;;;;;;;;;;22.00;44.90;;;;;;474671;251;1232;-47
2022/11/08 01:45:19;;;;;;;;;;;22.00;45.00;;;;;;474682;251;1194;-47
2022/11/08 01:47:21;;;;;;;;;;;22.00;45.00;;;;;;474716;251;1159;-46
2022/11/08 01:49:22;;;;;;;;;;;22.00;45.00;;;;;;474841;251;1246;-47
2022/11/08 01:51:23;;;;;;;;;;;22.00;45.00;;;;;;474672;251;2118;-46
2022/11/08 01:53:25;;;;;;;;;;;22.00;44.90;;;;;;474712;251;1083;-47
2022/11/08 01:55:26;;;;;;;;;;;22.00;44.90;;;;;;474824;251;1151;-47
2022/11/08 01:57:28;;;;;;;;;;;22.00;44.90;;;;;;474703;251;1164;-47
2022/11/08 01:59:29;;;;;;;;;;;22.00;44.90;;;;;;474865;251;1132;-47
2022/11/08 02:01:30;;;;;;;;;;;22.00;44.90;;;;;;475120;251;1202;-47
2022/11/08 02:03:32;;;;;;;;;;;22.00;44.90;;;;;;474704;251;1149;-47
2022/11/08 02:05:33;;;;;;;;;;;22.00;44.90;;;;;;474820;251;1238;-47
2022/11/08 02:07:34;;;;;;;;;;;22.00;44.90;;;;;;474799;251;1293;-47
2022/11/08 02:09:36;;;;;;;;;;;22.00;44.90;;;;;;474682;251;1280;-47
2022/11/08 02:11:37;;;;;;;;;;;22.00;44.90;;;;;;475118;251;2156;-47
2022/11/08 02:13:38;;;;;;;;;;;22.00;44.90;;;;;;475036;251;1218;-48
2022/11/08 02:15:40;;;;;;;;;;;22.00;44.90;;;;;;474648;251;1208;-48
2022/11/08 02:17:41;;;;;;;;;;;22.00;44.80;;;;;;474686;251;1262;-47
2022/11/08 02:19:42;;;;;;;;;;;22.00;44.80;;;;;;474807;251;1258;-47
2022/11/08 02:21:44;;;;;;;;;;;22.00;44.80;;;;;;474899;251;1238;-47
2022/11/08 02:23:45;;;;;;;;;;;22.00;44.90;;;;;;474988;251;1199;-47
2022/11/08 02:25:46;;;;;;;;;;;22.00;44.90;;;;;;474870;251;1359;-46
2022/11/08 02:27:48;;;;;;;;;;;22.00;44.90;;;;;;474711;251;1289;-47
2022/11/08 02:29:49;;;;;;;;;;;22.00;44.90;;;;;;474849;251;1305;-48
2022/11/08 02:31:50;;;;;;;;;;;22.00;44.90;;;;;;474631;251;2196;-48
2022/11/08 02:33:52;;;;;;;;;;;22.00;44.90;;;;;;474696;251;1246;-47
2022/11/08 02:35:53;;;;;;;;;;;22.00;45.00;;;;;;474659;251;1239;-47
2022/11/08 02:37:54;;;;;;;;;;;22.00;44.90;;;;;;474658;251;1226;-46
2022/11/08 02:39:55;;;;;;;;;;;22.00;44.90;;;;;;474999;251;1232;-47
2022/11/08 02:41:57;;;;;;;;;;;22.00;45.00;;;;;;474647;251;1283;-47
2022/11/08 02:43:58;;;;;;;;;;;22.00;45.00;;;;;;474550;251;1314;-48
2022/11/08 02:45:59;;;;;;;;;;;22.00;45.00;;;;;;474647;251;1196;-47
2022/11/08 02:48:01;;;;;;;;;;;22.00;45.00;;;;;;474619;251;1323;-47
2022/11/08 02:50:02;;;;;;;;;;;22.00;45.00;;;;;;474602;251;2193;-46
2022/11/08 02:52:03;;;;;;;;;;;22.00;45.00;;;;;;474649;251;1419;-47
2022/11/08 02:54:05;;;;;;;;;;;22.00;45.00;;;;;;474575;251;1210;-47
2022/11/08 02:56:06;;;;;;;;;;;22.00;45.00;;;;;;475047;251;1377;-46
2022/11/08 02:58:07;;;;;;;;;;;22.00;44.90;;;;;;475027;251;1227;-48
2022/11/08 03:00:09;;;;;;;;;;;22.00;44.90;;;;;;474847;251;1238;-47
2022/11/08 03:02:10;;;;;;;;;;;22.00;44.90;;;;;;474587;251;1347;-47
2022/11/08 03:04:11;;;;;;;;;;;22.00;45.00;;;;;;475011;251;1252;-47
2022/11/08 03:06:13;;;;;;;;;;;22.00;44.90;;;;;;474848;251;1606;-47
2022/11/08 03:08:14;;;;;;;;;;;22.00;44.90;;;;;;474701;251;1226;-46
2022/11/08 03:10:15;;;;;;;;;;;22.00;44.90;;;;;;474867;251;2201;-47
2022/11/08 03:12:18;;;;;;;;;;;22.00;44.90;;;;;;474952;251;1708;-47
2022/11/08 03:14:18;;;;;;;;;;;22.00;44.90;;;;;;474855;251;1850;-48
2022/11/08 03:16:19;;;;;;;;;;;22.00;44.90;;;;;;474636;251;1415;-47
2022/11/08 03:18:21;;;;;;;;;;;22.00;44.90;;;;;;474827;251;1224;-47
2022/11/08 03:20:22;;;;;;;;;;;22.00;44.90;;;;;;474926;251;1320;-47
2022/11/08 03:22:23;;;;;;;;;;;22.00;45.00;;;;;;474936;251;1349;-47
2022/11/08 03:24:25;;;;;;;;;;;22.00;44.90;;;;;;475051;251;1308;-47
2022/11/08 03:26:26;;;;;;;;;;;22.00;44.90;;;;;;475064;251;1265;-46
2022/11/08 03:28:27;;;;;;;;;;;22.00;45.00;;;;;;475048;251;1243;-47
2022/11/08 03:30:29;;;;;;;;;;;22.00;45.00;;;;;;474583;251;2201;-46
2022/11/08 03:32:30;;;;;;;;;;;22.00;45.00;;;;;;474775;251;1229;-47
2022/11/08 03:34:31;;;;;;;;;;;22.00;45.00;;;;;;474627;251;1320;-46
2022/11/08 03:36:33;;;;;;;;;;;22.00;45.00;;;;;;474826;251;1344;-48
2022/11/08 03:38:34;;;;;;;;;;;22.00;45.00;;;;;;474721;251;1291;-47
2022/11/08 03:40:35;;;;;;;;;;;22.00;44.90;;;;;;474712;251;1342;-48
2022/11/08 03:42:37;;;;;;;;;;;22.00;44.90;;;;;;474746;251;1213;-47
2022/11/08 03:44:38;;;;;;;;;;;22.00;44.90;;;;;;474644;251;1385;-48
2022/11/08 03:46:39;;;;;;;;;;;22.00;44.90;;;;;;474673;251;1211;-46
2022/11/08 03:48:41;;;;;;;;;;;22.00;44.90;;;;;;474965;251;1203;-46
2022/11/08 03:50:42;;;;;;;;;;;22.00;44.90;;;;;;475069;251;2152;-47
2022/11/08 03:52:43;;;;;;;;;;;21.90;44.80;;;;;;474824;251;1222;-46
2022/11/08 03:54:44;;;;;;;;;;;22.00;44.90;;;;;;474906;251;1263;-46
2022/11/08 03:56:46;;;;;;;;;;;22.00;44.90;;;;;;474924;251;1263;-47
2022/11/08 03:58:47;;;;;;;;;;;22.00;44.90;;;;;;474762;251;1267;-47
2022/11/08 04:00:48;;;;;;;;;;;22.00;45.00;;;;;;474923;251;1245;-46
2022/11/08 04:02:51;;;;;;;;;;;22.00;45.00;;;;;;474633;251;1210;-47
2022/11/08 04:04:51;;;;;;;;;;;22.00;44.90;;;;;;474819;251;1990;-47
2022/11/08 04:06:52;;;;;;;;;;;22.00;44.90;;;;;;474695;251;1255;-46
2022/11/08 04:08:54;;;;;;;;;;;22.00;44.90;;;;;;474732;251;1306;-47
2022/11/08 04:10:55;;;;;;;;;;;22.00;44.90;;;;;;474606;251;2197;-47
2022/11/08 04:15:16;;;;;;;;;;;22.00;44.90;;;;;;475093;251;1233;-47
2022/11/08 04:17:17;;;;;;;;;;;22.00;45.00;;;;;;475093;251;1193;-46
2022/11/08 04:21:37;;;;;;;;;;;21.90;45.00;;;;;;475094;251;1190;-47
2022/11/08 04:23:39;;;;;;;;;;;22.00;45.00;;;;;;474771;251;1331;-47
2022/11/08 04:25:40;;;;;;;;;;;21.90;44.90;;;;;;475034;251;1368;-47
2022/11/08 04:27:41;;;;;;;;;;;22.00;44.90;;;;;;475110;251;1214;-47
2022/11/08 04:29:43;;;;;;;;;;;22.00;44.90;;;;;;474889;251;1152;-47
2022/11/08 04:31:44;;;;;;;;;;;22.00;44.90;;;;;;475090;251;2192;-47
2022/11/08 04:33:45;;;;;;;;;;;22.00;44.90;;;;;;475028;251;1236;-47
2022/11/08 04:35:47;;;;;;;;;;;21.90;44.90;;;;;;474638;251;1279;-47
2022/11/08 04:37:48;;;;;;;;;;;21.90;44.90;;;;;;474654;251;1215;-47
2022/11/08 04:39:49;;;;;;;;;;;22.00;45.00;;;;;;475065;251;1321;-47
2022/11/08 04:41:51;;;;;;;;;;;22.00;44.90;;;;;;475083;251;1175;-47
2022/11/08 04:43:52;;;;;;;;;;;21.90;44.90;;;;;;475086;251;1283;-47
2022/11/08 04:45:53;;;;;;;;;;;21.90;44.90;;;;;;475041;251;1253;-47
2022/11/08 04:47:55;;;;;;;;;;;21.90;44.90;;;;;;475105;251;1236;-47
2022/11/08 04:49:56;;;;;;;;;;;22.00;45.00;;;;;;475060;251;1214;-47
2022/11/08 04:51:57;;;;;;;;;;;21.90;44.90;;;;;;475086;251;2200;-46
2022/11/08 04:53:59;;;;;;;;;;;21.90;44.90;;;;;;474785;251;1437;-46
2022/11/08 04:56:00;;;;;;;;;;;21.90;44.90;;;;;;474714;251;1237;-47
2022/11/08 04:58:02;;;;;;;;;;;21.90;45.00;;;;;;474654;251;1246;-47
2022/11/08 05:00:03;;;;;;;;;;;21.90;44.90;;;;;;474953;251;1234;-47
2022/11/08 05:02:04;;;;;;;;;;;21.90;44.90;;;;;;475053;251;1285;-46
2022/11/08 05:04:06;;;;;;;;;;;21.90;44.90;;;;;;474926;251;1290;-47
2022/11/08 05:06:07;;;;;;;;;;;21.90;44.90;;;;;;474768;251;1180;-47
2022/11/08 05:08:08;;;;;;;;;;;21.90;45.00;;;;;;474612;251;1182;-47
2022/11/08 05:10:10;;;;;;;;;;;21.90;44.90;;;;;;474472;251;1296;-47
2022/11/08 05:12:11;;;;;;;;;;;22.00;44.90;;;;;;474622;251;2161;-47
2022/11/08 05:14:12;;;;;;;;;;;22.00;44.90;;;;;;474906;251;1258;-46
2022/11/08 05:16:14;;;;;;;;;;;22.00;44.90;;;;;;474820;251;1251;-47
2022/11/08 05:18:15;;;;;;;;;;;22.00;44.90;;;;;;474625;251;1293;-47
2022/11/08 05:24:55;;;;;;;;;;;22.00;45.00;;;;;;474614;251;1365;-47
2022/11/08 05:26:56;;;;;;;;;;;21.90;44.90;;;;;;474576;251;1247;-47
2022/11/08 05:28:58;;;;;;;;;;;21.90;44.90;;;;;;474860;251;1281;-48
2022/11/08 05:30:59;;;;;;;;;;;22.00;44.90;;;;;;474782;251;2209;-46
2022/11/08 05:33:01;;;;;;;;;;;22.00;44.90;;;;;;475059;251;1350;-47
2022/11/08 05:35:02;;;;;;;;;;;21.90;44.90;;;;;;474615;251;1334;-47
2022/11/08 05:37:03;;;;;;;;;;;22.00;44.90;;;;;;474923;251;1217;-47
2022/11/08 05:39:05;;;;;;;;;;;21.90;44.90;;;;;;474831;251;1227;-47
2022/11/08 05:41:06;;;;;;;;;;;21.90;44.90;;;;;;475044;251;1180;-47
2022/11/08 05:43:07;;;;;;;;;;;22.00;44.90;;;;;;475017;251;1323;-47
2022/11/08 05:45:09;;;;;;;;;;;22.00;44.90;;;;;;474777;251;1220;-47
2022/11/08 05:47:10;;;;;;;;;;;21.90;44.90;;;;;;475029;251;1187;-48
2022/11/08 05:49:11;;;;;;;;;;;21.90;44.80;;;;;;474615;251;1229;-47
2022/11/08 05:51:13;;;;;;;;;;;22.00;44.80;;;;;;474854;251;2153;-47
2022/11/08 05:53:14;;;;;;;;;;;21.90;44.80;;;;;;475095;251;1260;-48
2022/11/08 05:55:15;;;;;;;;;;;21.90;44.90;;;;;;474641;251;1226;-47
2022/11/08 05:57:16;;;;;;;;;;;21.90;44.80;;;;;;474623;251;1223;-47
2022/11/08 05:59:18;;;;;;;;;;;21.90;44.80;;;;;;474832;251;1314;-46
2022/11/08 06:01:19;;;;;;;;;;;21.90;44.80;;;;;;475032;251;1172;-47
2022/11/08 06:03:21;;;;;;;;;;;22.00;44.90;;;;;;474936;251;1235;-47
2022/11/08 06:05:22;;;;;;;;;;;22.00;44.90;;;;;;474863;251;1232;-47
2022/11/08 06:07:24;;;;;;;;;;;21.90;44.80;;;;;;474897;251;1245;-47
2022/11/08 06:09:25;;;;;;;;;;;22.00;44.90;;;;;;474804;251;1216;-46
2022/11/08 06:11:26;;;;;;;;;;;22.00;44.90;;;;;;474609;251;2205;-47
2022/11/08 06:13:28;;;;;;;;;;;21.90;44.80;;;;;;474682;251;1299;-47
2022/11/08 06:15:29;;;;;;;;;;;22.00;44.90;;;;;;474504;251;1263;-48
2022/11/08 06:17:30;;;;;;;;;;;22.00;44.90;;;;;;474662;251;1694;-48
2022/11/08 06:19:31;;;;;;;;;;;21.90;44.80;;;;;;474715;251;1305;-48
2022/11/08 06:21:33;;;;;;;;;;;21.90;44.80;;;;;;474510;251;1273;-47
2022/11/08 06:23:34;;;;;;;;;;;22.00;44.80;;;;;;474684;251;1325;-47
2022/11/08 06:25:35;;;;;;;;;;;22.00;44.80;;;;;;474463;251;1224;-47
2022/11/08 06:27:37;;;;;;;;;;;22.00;44.80;;;;;;474569;251;1245;-48
2022/11/08 06:29:41;;;;;;;;;;;21.90;44.80;;;;;;474528;251;1486;-48
2022/11/08 06:31:39;;;;;;;;;;;21.90;44.80;;;;;;474323;251;2146;-46
2022/11/08 06:33:41;;;;;;;;;;;21.90;44.90;;;;;;474574;251;1266;-48
2022/11/08 06:35:42;;;;;;;;;;;22.00;44.90;;;;;;474909;251;1208;-47
2022/11/08 06:37:43;;;;;;;;;;;21.90;44.80;;;;;;474732;251;1204;-46
2022/11/08 06:39:45;;;;;;;;;;;22.00;44.90;;;;;;474564;251;1245;-47
2022/11/08 06:41:46;;;;;;;;;;;21.90;44.80;;;;;;474631;251;1206;-47
2022/11/08 06:43:47;;;;;;;;;;;21.90;44.80;;;;;;474469;251;1274;-47
2022/11/08 06:45:49;;;;;;;;;;;21.90;44.90;;;;;;474553;251;1546;-47
2022/11/08 06:47:50;;;;;;;;;;;21.90;44.80;;;;;;474581;251;1182;-47
2022/11/08 06:49:51;;;;;;;;;;;21.90;44.80;;;;;;474536;251;1261;-48
2022/11/08 06:51:53;;;;;;;;;;;21.90;44.80;;;;;;474517;251;2249;-48
2022/11/08 06:53:54;;;;;;;;;;;21.90;44.80;;;;;;474496;251;1293;-48
2022/11/08 06:55:55;;;;;;;;;;;21.90;44.80;;;;;;474403;251;1232;-47
2022/11/08 06:57:57;;;;;;;;;;;21.90;44.80;;;;;;474436;251;1271;-46
2022/11/08 06:59:58;;;;;;;;;;;22.00;44.80;;;;;;474752;251;1255;-46
2022/11/08 07:01:59;;;;;;;;;;;21.90;44.80;;;;;;474569;251;1800;-47
2022/11/08 07:04:01;;;;;;;;;;;21.90;44.80;;;;;;474522;251;1249;-46
2022/11/08 07:06:02;;;;;;;;;;;21.90;44.80;;;;;;474384;251;1276;-47
2022/11/08 07:08:03;;;;;;;;;;;21.90;44.80;;;;;;474447;251;1387;-48
2022/11/08 07:10:05;;;;;;;;;;;21.90;44.70;;;;;;474406;251;1225;-47
2022/11/08 07:12:06;;;;;;;;;;;21.90;44.70;;;;;;474856;251;2172;-47
2022/11/08 07:14:07;;;;;;;;;;;22.00;44.70;;;;;;474630;251;1206;-47
2022/11/08 07:16:09;;;;;;;;;;;21.90;44.70;;;;;;474506;251;1353;-47
2022/11/08 07:18:10;;;;;;;;;;;22.00;44.60;;;;;;474518;251;1203;-48
2022/11/08 07:20:11;;;;;;;;;;;22.00;44.60;;;;;;474569;251;1192;-47
2022/11/08 07:22:13;;;;;;;;;;;22.00;44.50;;;;;;474865;251;1292;-47
2022/11/08 07:24:14;;;;;;;;;;;21.90;44.50;;;;;;474510;251;1241;-46
2022/11/08 07:26:15;;;;;;;;;;;22.00;44.50;;;;;;474466;251;1289;-46
2022/11/08 07:28:16;;;;;;;;;;;22.00;44.50;;;;;;474606;251;1246;-48
2022/11/08 07:30:18;;;;;;;;;;;22.00;44.50;;;;;;474409;251;1199;-47
2022/11/08 07:32:19;;;;;;;;;;;22.00;44.40;;;;;;474502;251;2173;-47
2022/11/08 07:34:20;;;;;;;;;;;22.00;44.20;;;;;;474404;251;1190;-48
2022/11/08 07:36:22;;;;;;;;;;;22.10;44.20;;;;;;474383;251;1257;-47
2022/11/08 07:38:25;;;;;;;;;;;22.10;43.90;;;;;;474527;251;1205;-46
2022/11/08 07:40:25;;;;;;;;;;;22.20;43.80;;;;;;474359;251;2014;-47
2022/11/08 07:42:26;;;;;;;;;;;22.20;43.80;;;;;;474519;251;1169;-46
2022/11/08 07:44:27;;;;;;;;;;;22.20;43.90;;;;;;474451;251;1195;-47
2022/11/08 07:46:29;;;;;;;;;;;22.20;43.80;;;;;;474267;251;1215;-47
2022/11/08 07:48:30;;;;;;;;;;;22.20;43.70;;;;;;474075;251;1165;-46
2022/11/08 07:50:31;;;;;;;;;;;22.20;43.70;;;;;;474370;251;1125;-47
2022/11/08 07:52:33;;;;;;;;;;;22.30;43.70;;;;;;474436;251;2174;-48
2022/11/08 07:54:34;;;;;;;;;;;22.30;43.70;;;;;;474033;251;1255;-48
2022/11/08 07:56:36;;;;;;;;;;;22.30;43.60;;;;;;474199;251;1237;-47
2022/11/08 07:58:37;;;;;;;;;;;22.30;43.60;;;;;;473951;251;1323;-48
2022/11/08 08:00:38;;;;;;;;;;;22.30;43.60;;;;;;474058;251;1198;-47
2022/11/08 08:02:40;;;;;;;;;;;22.30;43.60;;;;;;473757;251;1207;-47
2022/11/08 08:04:41;;;;;;;;;;;22.30;43.50;;;;;;473921;251;1211;-47
2022/11/08 08:06:42;;;;;;;;;;;22.30;43.50;;;;;;473746;251;1237;-47
2022/11/08 08:08:44;;;;;;;;;;;22.30;43.50;;;;;;473671;251;1195;-48
2022/11/08 08:10:45;;;;;;;;;;;22.30;43.50;;;;;;473846;251;1272;-47
2022/11/08 08:12:46;;;;;;;;;;;22.30;43.50;;;;;;474086;251;2209;-48
2022/11/08 08:14:48;;;;;;;;;;;22.30;43.40;;;;;;474253;251;1299;-48
2022/11/08 08:16:49;;;;;;;;;;;22.40;43.20;;;;;;474108;251;1568;-48
2022/11/08 08:18:51;;;;;;;;;;;22.50;43.00;;;;;;474225;251;1179;-48
2022/11/08 08:20:52;;;;;;;;;;;22.60;42.90;;;;;;474400;251;1180;-47
2022/11/08 08:22:53;;;;;;;;;;;22.60;42.80;;;;;;474179;251;1290;-47
2022/11/08 08:24:55;;;;;;;;;;;22.60;42.80;;;;;;474284;251;1220;-48
2022/11/08 08:26:56;;;;;;;;;;;22.60;42.80;;;;;;473966;251;1320;-47
2022/11/08 08:28:57;;;;;;;;;;;22.50;42.80;;;;;;474276;251;1267;-47
2022/11/08 08:30:59;;;;;;;;;;;22.60;43.00;;;;;;473846;251;1627;-47
2022/11/08 08:33:00;;;;;;;;;;;22.60;43.00;;;;;;474055;251;2205;-47
2022/11/08 08:35:01;;;;;;;;;;;22.50;42.90;;;;;;474223;251;1253;-48
2022/11/08 08:37:02;;;;;;;;;;;22.60;43.00;;;;;;474295;251;1219;-47
2022/11/08 08:39:04;;;;;;;;;;;22.60;43.00;;;;;;474218;251;1253;-48
2022/11/08 08:41:05;;;;;;;;;;;22.60;43.00;;;;;;474221;251;1307;-47
2022/11/08 08:43:07;;;;;;;;;;;22.60;42.90;;;;;;474421;251;1097;-47
2022/11/08 08:45:09;;;;;;;;;;;22.50;42.90;;;;;;474421;251;1238;-47
2022/11/08 08:47:09;;;;;;;;;;;22.60;43.00;;;;;;474108;251;1977;-47
2022/11/08 08:49:10;;;;;;;;;;;22.60;42.90;;;;;;474306;251;1238;-47
2022/11/08 08:51:12;;;;;;;;;;;22.60;43.00;;;;;;474267;251;1262;-47
2022/11/08 08:53:13;;;;;;;;;;;22.60;42.80;;;;;;474253;251;2158;-47
2022/11/08 08:55:15;;;;;;;;;;;22.70;42.70;;;;;;474247;251;1380;-48
2022/11/08 08:57:16;;;;;;;;;;;22.80;42.60;;;;;;474303;251;1903;-47
2022/11/08 08:59:18;;;;;;;;;;;22.80;42.60;;;;;;473997;251;1676;-47
2022/11/08 09:01:19;;;;;;;;;;;22.80;42.50;;;;;;474046;251;1310;-47
2022/11/08 09:03:20;;;;;;;;;;;22.70;42.50;;;;;;473998;251;1279;-47
2022/11/08 09:05:22;;;;;;;;;;;22.70;42.60;;;;;;474051;251;1720;-48
2022/11/08 09:07:23;;;;;;;;;;;22.70;42.70;;;;;;474019;251;1361;-47
2022/11/08 09:09:24;;;;;;;;;;;22.70;42.70;;;;;;473858;251;1556;-47
2022/11/08 09:11:26;;;;;;;;;;;22.70;42.70;;;;;;473974;251;1315;-47
2022/11/08 09:13:27;;;;;;;;;;;22.70;42.80;;;;;;474155;251;2165;-47
2022/11/08 09:15:28;;;;;;;;;;;22.70;42.70;;;;;;474125;251;1344;-47
2022/11/08 09:17:29;;;;;;;;;;;22.60;42.70;;;;;;474167;251;1636;-47
2022/11/08 09:19:31;;;;;;;;;;;22.60;42.80;;;;;;473731;251;1674;-47
2022/11/08 09:21:32;;;;;;;;;;;22.70;42.80;;;;;;473884;251;1574;-47
2022/11/08 09:23:33;;;;;;;;;;;22.60;42.80;;;;;;473878;251;1304;-46
2022/11/08 09:25:35;;;;;;;;;;;22.60;42.80;;;;;;473811;251;1348;-48
2022/11/08 09:27:36;;;;;;;;;;;22.60;42.80;;;;;;473925;251;1566;-47
2022/11/08 09:29:37;;;;;;;;;;;22.60;42.80;;;;;;473974;251;1408;-48
2022/11/08 09:31:39;;;;;;;;;;;22.60;42.80;;;;;;473741;251;1604;-48
2022/11/08 09:33:40;;;;;;;;;;;22.60;42.80;;;;;;473655;251;2189;-48
2022/11/08 09:35:42;;;;;;;;;;;22.70;42.80;;;;;;473577;251;1420;-47
2022/11/08 09:37:43;;;;;;;;;;;22.70;42.80;;;;;;473674;251;1368;-47
2022/11/08 09:39:45;;;;;;;;;;;22.60;42.80;;;;;;473640;251;1264;-47
2022/11/08 09:41:46;;;;;;;;;;;22.60;42.90;;;;;;473654;251;1382;-47
2022/11/08 09:43:48;;;;;;;;;;;22.60;42.90;;;;;;473909;251;1297;-47
2022/11/08 09:45:51;;;;;;;;;;;22.60;42.90;;;;;;473947;251;1358;-48
2022/11/08 09:47:50;;;;;;;;;;;22.60;42.90;;;;;;473961;251;2037;-47
2022/11/08 09:49:52;;;;;;;;;;;22.70;43.00;;;;;;473997;251;1342;-48
2022/11/08 09:51:53;;;;;;;;;;;22.60;42.90;;;;;;473920;251;1278;-47
2022/11/08 09:53:54;;;;;;;;;;;22.60;42.80;;;;;;473967;251;2205;-48
2022/11/08 09:55:56;;;;;;;;;;;22.60;42.90;;;;;;474195;250;1428;-47
2022/11/08 09:57:57;;;;;;;;;;;22.60;42.90;;;;;;474241;251;1303;-46
2022/11/08 09:59:58;;;;;;;;;;;22.50;42.90;;;;;;474201;251;1242;-47
2022/11/08 10:02:00;;;;;;;;;;;22.50;43.00;;;;;;474074;251;1246;-48
2022/11/08 10:04:01;;;;;;;;;;;22.50;43.00;;;;;;473755;251;1402;-47
2022/11/08 10:06:02;;;;;;;;;;;22.50;43.00;;;;;;474102;251;1673;-46
2022/11/08 10:08:04;;;;;;;;;;;22.50;43.10;;;;;;474093;251;1298;-47
2022/11/08 10:10:05;;;;;;;;;;;22.50;43.10;;;;;;474197;251;1349;-48
2022/11/08 10:12:07;;;;;;;;;;;22.50;43.20;;;;;;474225;251;1350;-47
2022/11/08 10:14:08;;;;;;;;;;;22.50;43.20;;;;;;474129;251;2153;-47
2022/11/08 10:16:09;;;;;;;;;;;22.50;43.20;;;;;;474109;251;1247;-47
2022/11/08 10:18:11;;;;;;;;;;;22.50;43.20;;;;;;474163;251;1297;-47
2022/11/08 10:20:12;;;;;;;;;;;22.50;43.20;;;;;;474176;251;1364;-48
2022/11/08 10:22:13;;;;;;;;;;;22.40;43.20;;;;;;474126;251;1215;-47
2022/11/08 10:24:15;;;;;;;;;;;22.40;43.20;;;;;;474351;251;1233;-46
2022/11/08 10:26:17;;;;;;;;;;;22.40;43.20;;;;;;474105;251;1622;-48
2022/11/08 10:28:18;;;;;;;;;;;22.40;43.30;;;;;;474071;251;1296;-47
2022/11/08 10:30:20;;;;;;;;;;;22.40;43.30;;;;;;474320;251;1359;-47
2022/11/08 10:32:21;;;;;;;;;;;22.40;43.30;;;;;;473852;251;1282;-47
2022/11/08 10:34:22;;;;;;;;;;;22.40;43.30;;;;;;473911;251;2169;-46
2022/11/08 10:36:23;;;;;;;;;;;22.40;43.30;;;;;;473947;251;1913;-47
2022/11/08 10:38:29;;;;;;;;;;;22.40;43.30;;;;;;473901;251;1687;-46
2022/11/08 10:40:26;;;;;;;;;;;22.40;43.40;;;;;;473696;251;1918;-48
2022/11/08 10:42:28;;;;;;;;;;;22.40;43.40;;;;;;473872;251;1895;-48
2022/11/08 10:44:29;;;;;;;;;;;22.40;43.40;;;;;;474007;251;1335;-47
2022/11/08 10:46:31;;;;;;;;;;;22.40;43.40;;;;;;474205;251;1301;-47
2022/11/08 10:48:32;;;;;;;;;;;22.30;43.40;;;;;;474022;251;1245;-48
2022/11/08 10:50:33;;;;;;;;;;;22.30;43.40;;;;;;474168;251;1268;-47
2022/11/08 10:52:34;;;;;;;;;;;22.30;43.40;;;;;;473866;251;1377;-48
2022/11/08 10:54:36;;;;;;;;;;;22.30;43.40;;;;;;473838;251;2208;-48
2022/11/08 10:56:37;;;;;;;;;;;22.40;43.40;;;;;;473731;251;1379;-47
2022/11/08 10:58:38;;;;;;;;;;;22.40;43.40;;;;;;473765;251;1281;-47
2022/11/08 11:00:40;;;;;;;;;;;22.30;43.40;;;;;;473882;251;1340;-47
2022/11/08 11:02:41;;;;;;;;;;;22.30;43.40;;;;;;474042;251;1292;-46
2022/11/08 11:04:43;;;;;;;;;;;22.30;43.40;;;;;;474063;251;1217;-47
2022/11/08 11:06:44;;;;;;;;;;;22.30;43.40;;;;;;473886;251;1186;-47
2022/11/08 11:08:45;;;;;;;;;;;22.40;43.40;;;;;;473854;251;1290;-48
2022/11/08 11:10:47;;;;;;;;;;;22.40;43.40;;;;;;473748;251;1296;-48
2022/11/08 11:12:48;;;;;;;;;;;22.30;43.30;;;;;;473725;251;1421;-47
2022/11/08 11:14:49;;;;;;;;;;;22.30;43.40;;;;;;474139;251;2110;-47
2022/11/08 11:16:51;;;;;;;;;;;22.30;43.30;;;;;;474201;251;1237;-47
2022/11/08 11:18:52;;;;;;;;;;;22.30;43.30;;;;;;474129;251;1243;-47
2022/11/08 11:20:53;;;;;;;;;;;22.40;43.40;;;;;;474222;251;1180;-46
2022/11/08 11:22:55;;;;;;;;;;;22.40;43.40;;;;;;473957;251;1303;-47
2022/11/08 11:24:56;;;;;;;;;;;22.30;43.30;;;;;;474084;251;1244;-46
2022/11/08 11:26:58;;;;;;;;;;;22.30;43.30;;;;;;474206;251;1228;-47
2022/11/08 11:28:59;;;;;;;;;;;22.40;43.30;;;;;;473870;251;1256;-47
2022/11/08 11:31:00;;;;;;;;;;;22.30;43.30;;;;;;473974;251;1292;-47
2022/11/08 11:33:02;;;;;;;;;;;22.30;43.30;;;;;;474148;251;1302;-47
2022/11/08 11:35:03;;;;;;;;;;;22.30;43.30;;;;;;474000;251;1255;-47
2022/11/08 11:37:04;;;;;;;;;;;22.30;43.30;;;;;;474028;251;1335;-47
2022/11/08 11:39:06;;;;;;;;;;;22.30;43.30;;;;;;473983;251;1256;-46
2022/11/08 11:41:07;;;;;;;;;;;22.30;43.30;;;;;;474202;251;1296;-47
2022/11/08 11:43:08;;;;;;;;;;;22.30;43.20;;;;;;474096;251;1676;-47
2022/11/08 11:45:10;;;;;;;;;;;22.30;43.20;;;;;;474151;251;1233;-47
2022/11/08 11:47:11;;;;;;;;;;;22.40;43.20;;;;;;474033;251;1205;-48
2022/11/08 11:49:12;;;;;;;;;;;22.40;43.20;;;;;;474078;251;1236;-47
2022/11/08 11:51:14;;;;;;;;;;;22.40;43.20;;;;;;474077;251;1346;-46
2022/11/08 11:53:15;;;;;;;;;;;22.40;43.20;;;;;;473907;251;2214;-47
2022/11/08 11:55:16;;;;;;;;;;;22.40;43.20;;;;;;473954;251;1319;-47
2022/11/08 11:57:18;;;;;;;;;;;22.30;43.20;;;;;;474236;251;1280;-47
2022/11/08 11:59:19;;;;;;;;;;;22.30;43.30;;;;;;474005;251;1354;-47
2022/11/08 12:01:20;;;;;;;;;;;22.30;43.30;;;;;;474232;251;1324;-47
2022/11/08 12:03:21;;;;;;;;;;;22.30;43.30;;;;;;474128;251;1268;-47
2022/11/08 12:05:23;;;;;;;;;;;22.30;43.40;;;;;;474160;251;1330;-47
2022/11/08 12:07:24;;;;;;;;;;;22.30;43.40;;;;;;474255;251;1225;-48
2022/11/08 12:09:25;;;;;;;;;;;22.20;43.40;;;;;;474219;251;1279;-46
2022/11/08 12:11:27;;;;;;;;;;;22.20;43.40;;;;;;474241;251;1329;-47
2022/11/08 12:13:28;;;;;;;;;;;22.30;43.40;;;;;;474033;251;2177;-48
2022/11/08 12:15:30;;;;;;;;;;;22.20;43.30;;;;;;474207;251;1186;-46
2022/11/08 12:17:31;;;;;;;;;;;22.20;43.40;;;;;;474090;251;1292;-47